createdAt,value
2018-10-07T00:00:14.645Z,1003.99
2018-10-07T00:01:14.494Z,1003.96
2018-10-07T00:02:14.563Z,1003.96
2018-10-07T00:03:14.525Z,1003.91
2018-10-07T00:04:14.550Z,1003.90
2018-10-07T00:05:14.544Z,1003.87
2018-10-07T00:06:14.564Z,1003.90
2018-10-07T00:07:14.621Z,1003.90
2018-10-07T00:08:16.053Z,1003.91
2018-10-07T00:09:14.637Z,1003.91
2018-10-07T00:10:14.680Z,1003.94
2018-10-07T00:11:14.680Z,1003.92
2018-10-07T00:12:14.606Z,1003.95
2018-10-07T00:13:14.646Z,1003.92
2018-10-07T00:14:14.681Z,1003.91
2018-10-07T00:15:14.647Z,1003.92
2018-10-07T00:16:14.702Z,1003.89
2018-10-07T00:17:14.831Z,1003.88
2018-10-07T00:18:14.683Z,1003.85
2018-10-07T00:19:14.723Z,1003.86
2018-10-07T00:20:14.726Z,1003.83
2018-10-07T00:21:14.712Z,1003.82
2018-10-07T00:22:14.717Z,1003.82
2018-10-07T00:23:14.711Z,1003.79
2018-10-07T00:24:14.737Z,1003.82
2018-10-07T00:25:14.778Z,1003.78
2018-10-07T00:26:14.764Z,1003.82
2018-10-07T00:27:14.759Z,1003.79
2018-10-07T00:28:14.781Z,1003.80
2018-10-07T00:29:14.801Z,1003.78
2018-10-07T00:30:14.796Z,1003.78
2018-10-07T00:31:14.871Z,1003.79
2018-10-07T00:32:14.839Z,1003.75
2018-10-07T00:33:14.815Z,1003.77
2018-10-07T00:34:14.831Z,1003.82
2018-10-07T00:35:14.848Z,1003.79
2018-10-07T00:36:14.888Z,1003.78
2018-10-07T00:37:14.909Z,1003.81
2018-10-07T00:38:14.893Z,1003.81
2018-10-07T00:39:14.867Z,1003.82
2018-10-07T00:40:14.914Z,1003.79
2018-10-07T00:41:14.884Z,1003.78
2018-10-07T00:42:14.946Z,1003.78
2018-10-07T00:43:14.959Z,1003.80
2018-10-07T00:44:14.950Z,1003.77
2018-10-07T00:45:14.977Z,1003.76
2018-10-07T00:46:14.948Z,1003.76
2018-10-07T00:47:15.051Z,1003.76
2018-10-07T00:48:14.970Z,1003.74
2018-10-07T00:49:14.976Z,1003.76
2018-10-07T00:50:14.978Z,1003.72
2018-10-07T00:51:15.068Z,1003.69
2018-10-07T00:52:15.001Z,1003.70
2018-10-07T00:53:15.033Z,1003.71
2018-10-07T00:54:15.047Z,1003.72
2018-10-07T00:55:15.019Z,1003.74
2018-10-07T00:56:15.024Z,1003.75
2018-10-07T00:57:15.041Z,1003.74
2018-10-07T00:58:15.086Z,1003.74
2018-10-07T00:59:15.046Z,1003.70
2018-10-07T01:00:15.071Z,1003.75
2018-10-07T01:01:15.095Z,1003.76
2018-10-07T01:02:15.109Z,1003.79
2018-10-07T01:03:15.117Z,1003.81
2018-10-07T01:04:15.110Z,1003.80
2018-10-07T01:05:15.131Z,1003.77
2018-10-07T01:06:15.182Z,1003.77
2018-10-07T01:07:15.190Z,1003.79
2018-10-07T01:08:15.156Z,1003.78
2018-10-07T01:09:15.212Z,1003.76
2018-10-07T01:10:15.160Z,1003.81
2018-10-07T01:11:15.175Z,1003.76
2018-10-07T01:12:15.219Z,1003.74
2018-10-07T01:13:15.190Z,1003.73
2018-10-07T01:14:15.254Z,1003.71
2018-10-07T01:15:15.239Z,1003.70
2018-10-07T01:16:15.242Z,1003.69
2018-10-07T01:17:15.269Z,1003.68
2018-10-07T01:18:15.278Z,1003.69
2018-10-07T01:19:15.275Z,1003.69
2018-10-07T01:20:15.236Z,1003.67
2018-10-07T01:21:15.602Z,1003.64
2018-10-07T01:22:15.303Z,1003.67
2018-10-07T01:23:15.298Z,1003.65
2018-10-07T01:24:15.511Z,1003.67
2018-10-07T01:25:15.311Z,1003.65
2018-10-07T01:26:15.307Z,1003.67
2018-10-07T01:27:15.366Z,1003.65
2018-10-07T01:28:15.339Z,1003.61
2018-10-07T01:29:15.348Z,1003.67
2018-10-07T01:30:15.443Z,1003.66
2018-10-07T01:31:15.479Z,1003.64
2018-10-07T01:32:15.359Z,1003.64
2018-10-07T01:33:15.381Z,1003.63
2018-10-07T01:34:15.431Z,1003.66
2018-10-07T01:35:15.379Z,1003.65
2018-10-07T01:36:15.393Z,1003.63
2018-10-07T01:37:15.394Z,1003.65
2018-10-07T01:38:15.521Z,1003.64
2018-10-07T01:39:15.490Z,1003.68
2018-10-07T01:40:15.438Z,1003.66
2018-10-07T01:41:15.462Z,1003.65
2018-10-07T01:42:15.480Z,1003.64
2018-10-07T01:43:15.477Z,1003.67
2018-10-07T01:44:15.492Z,1003.67
2018-10-07T01:45:15.501Z,1003.65
2018-10-07T01:46:15.498Z,1003.66
2018-10-07T01:47:15.549Z,1003.66
2018-10-07T01:48:15.521Z,1003.66
2018-10-07T01:49:15.512Z,1003.61
2018-10-07T01:50:15.566Z,1003.63
2018-10-07T01:51:15.542Z,1003.65
2018-10-07T01:52:15.549Z,1003.67
2018-10-07T01:53:15.544Z,1003.64
2018-10-07T01:54:15.559Z,1003.66
2018-10-07T01:55:15.614Z,1003.64
2018-10-07T01:56:15.625Z,1003.66
2018-10-07T01:57:15.585Z,1003.71
2018-10-07T01:58:15.620Z,1003.69
2018-10-07T01:59:15.618Z,1003.72
2018-10-07T02:00:15.659Z,1003.74
2018-10-07T02:01:15.658Z,1003.74
2018-10-07T02:02:15.673Z,1003.71
2018-10-07T02:03:15.718Z,1003.74
2018-10-07T02:04:15.663Z,1003.78
2018-10-07T02:05:15.698Z,1003.77
2018-10-07T02:06:15.708Z,1003.79
2018-10-07T02:07:15.736Z,1003.79
2018-10-07T02:08:15.706Z,1003.76
2018-10-07T02:09:15.719Z,1003.71
2018-10-07T02:10:15.711Z,1003.80
2018-10-07T02:11:15.735Z,1003.77
2018-10-07T02:12:15.736Z,1003.78
2018-10-07T02:13:15.793Z,1003.74
2018-10-07T02:14:15.771Z,1003.78
2018-10-07T02:15:15.793Z,1003.80
2018-10-07T02:16:15.763Z,1003.77
2018-10-07T02:17:15.781Z,1003.77
2018-10-07T02:18:15.881Z,1003.83
2018-10-07T02:19:15.785Z,1003.83
2018-10-07T02:20:15.834Z,1003.87
2018-10-07T02:21:15.886Z,1003.87
2018-10-07T02:22:15.842Z,1003.91
2018-10-07T02:23:15.835Z,1003.90
2018-10-07T02:24:15.863Z,1003.85
2018-10-07T02:25:15.850Z,1003.87
2018-10-07T02:26:15.862Z,1003.89
2018-10-07T02:27:15.861Z,1003.91
2018-10-07T02:28:15.962Z,1003.92
2018-10-07T02:29:15.922Z,1003.93
2018-10-07T02:30:15.893Z,1003.95
2018-10-07T02:31:15.900Z,1004.00
2018-10-07T02:32:15.918Z,1003.96
2018-10-07T02:33:15.950Z,1004.03
2018-10-07T02:34:15.910Z,1003.99
2018-10-07T02:35:15.923Z,1003.99
2018-10-07T02:36:15.975Z,1003.98
2018-10-07T02:37:15.942Z,1004.01
2018-10-07T02:38:16.062Z,1004.01
2018-10-07T02:39:15.987Z,1004.03
2018-10-07T02:40:16.015Z,1004.08
2018-10-07T02:41:16.003Z,1004.05
2018-10-07T02:42:16.026Z,1004.08
2018-10-07T02:43:16.018Z,1004.09
2018-10-07T02:44:16.041Z,1004.11
2018-10-07T02:45:16.014Z,1004.12
2018-10-07T02:46:16.053Z,1004.13
2018-10-07T02:47:16.027Z,1004.14
2018-10-07T02:48:16.068Z,1004.16
2018-10-07T02:49:16.063Z,1004.18
2018-10-07T02:50:16.066Z,1004.15
2018-10-07T02:51:16.089Z,1004.16
2018-10-07T02:52:16.101Z,1004.17
2018-10-07T02:53:16.114Z,1004.17
2018-10-07T02:54:16.101Z,1004.18
2018-10-07T02:55:17.405Z,1004.17
2018-10-07T02:56:16.134Z,1004.20
2018-10-07T02:57:16.134Z,1004.19
2018-10-07T02:58:16.162Z,1004.21
2018-10-07T02:59:16.148Z,1004.20
2018-10-07T03:00:16.195Z,1004.20
2018-10-07T03:01:16.182Z,1004.22
2018-10-07T03:02:16.196Z,1004.19
2018-10-07T03:03:16.199Z,1004.19
2018-10-07T03:04:16.189Z,1004.19
2018-10-07T03:05:16.222Z,1004.12
2018-10-07T03:06:16.208Z,1004.18
2018-10-07T03:07:16.227Z,1004.19
2018-10-07T03:08:16.300Z,1004.20
2018-10-07T03:09:16.247Z,1004.17
2018-10-07T03:10:16.253Z,1004.23
2018-10-07T03:11:16.264Z,1004.21
2018-10-07T03:12:16.344Z,1004.22
2018-10-07T03:13:16.287Z,1004.23
2018-10-07T03:14:16.284Z,1004.22
2018-10-07T03:15:16.308Z,1004.21
2018-10-07T03:16:16.524Z,1004.23
2018-10-07T03:17:16.309Z,1004.23
2018-10-07T03:18:16.374Z,1004.22
2018-10-07T03:19:16.357Z,1004.19
2018-10-07T03:20:16.348Z,1004.21
2018-10-07T03:21:16.386Z,1004.25
2018-10-07T03:22:16.344Z,1004.24
2018-10-07T03:23:16.389Z,1004.26
2018-10-07T03:24:16.413Z,1004.25
2018-10-07T03:25:16.404Z,1004.21
2018-10-07T03:26:16.408Z,1004.30
2018-10-07T03:27:16.425Z,1004.37
2018-10-07T03:28:16.420Z,1004.36
2018-10-07T03:29:16.476Z,1004.34
2018-10-07T03:30:16.471Z,1004.33
2018-10-07T03:31:16.441Z,1004.32
2018-10-07T03:32:16.478Z,1004.27
2018-10-07T03:33:16.454Z,1004.28
2018-10-07T03:34:16.532Z,1004.27
2018-10-07T03:35:16.509Z,1004.27
2018-10-07T03:36:16.511Z,1004.28
2018-10-07T03:37:16.553Z,1004.24
2018-10-07T03:38:16.544Z,1004.26
2018-10-07T03:39:16.568Z,1004.26
2018-10-07T03:40:16.635Z,1004.30
2018-10-07T03:41:16.541Z,1004.35
2018-10-07T03:42:16.580Z,1004.33
2018-10-07T03:43:16.547Z,1004.39
2018-10-07T03:44:16.620Z,1004.44
2018-10-07T03:45:16.599Z,1004.57
2018-10-07T03:46:16.586Z,1004.59
2018-10-07T03:47:16.955Z,1004.48
2018-10-07T03:48:16.627Z,1004.53
2018-10-07T03:49:16.624Z,1004.60
2018-10-07T03:50:16.627Z,1004.65
2018-10-07T03:51:16.640Z,1004.61
2018-10-07T03:52:16.639Z,1004.58
2018-10-07T03:53:16.642Z,1004.65
2018-10-07T03:54:16.644Z,1004.67
2018-10-07T03:55:16.671Z,1004.67
2018-10-07T03:56:16.674Z,1004.62
2018-10-07T03:57:16.665Z,1004.65
2018-10-07T03:58:16.776Z,1004.62
2018-10-07T03:59:16.689Z,1004.59
2018-10-07T04:00:16.694Z,1004.61
2018-10-07T04:01:16.751Z,1004.69
2018-10-07T04:02:16.761Z,1004.69
2018-10-07T04:03:16.751Z,1004.75
2018-10-07T04:04:16.760Z,1004.78
2018-10-07T04:05:17.055Z,1004.77
2018-10-07T04:06:16.774Z,1004.82
2018-10-07T04:07:16.764Z,1004.75
2018-10-07T04:08:16.784Z,1004.81
2018-10-07T04:09:16.765Z,1004.80
2018-10-07T04:10:16.806Z,1004.83
2018-10-07T04:11:17.317Z,1004.89
2018-10-07T04:12:16.816Z,1004.91
2018-10-07T04:13:16.918Z,1004.87
2018-10-07T04:14:16.842Z,1004.84
2018-10-07T04:15:16.833Z,1004.81
2018-10-07T04:16:16.865Z,1004.81
2018-10-07T04:17:16.898Z,1004.84
2018-10-07T04:18:16.865Z,1004.83
2018-10-07T04:19:16.879Z,1004.86
2018-10-07T04:20:16.881Z,1004.82
2018-10-07T04:21:16.915Z,1004.86
2018-10-07T04:22:16.939Z,1004.82
2018-10-07T04:23:16.925Z,1004.86
2018-10-07T04:24:16.916Z,1004.82
2018-10-07T04:25:16.917Z,1004.84
2018-10-07T04:26:16.921Z,1004.90
2018-10-07T04:27:16.980Z,1004.87
2018-10-07T04:28:16.954Z,1004.90
2018-10-07T04:29:16.944Z,1004.90
2018-10-07T04:30:16.951Z,1004.90
2018-10-07T04:31:16.972Z,1004.91
2018-10-07T04:32:16.989Z,1004.95
2018-10-07T04:33:17.010Z,1004.94
2018-10-07T04:34:16.997Z,1004.93
2018-10-07T04:35:17.037Z,1004.97
2018-10-07T04:36:17.071Z,1004.90
2018-10-07T04:37:17.104Z,1004.90
2018-10-07T04:38:17.085Z,1004.89
2018-10-07T04:39:17.037Z,1004.88
2018-10-07T04:40:17.082Z,1004.94
2018-10-07T04:41:17.065Z,1004.99
2018-10-07T04:42:17.136Z,1004.96
2018-10-07T04:43:17.101Z,1004.98
2018-10-07T04:44:17.163Z,1004.92
2018-10-07T04:45:17.129Z,1004.96
2018-10-07T04:46:17.192Z,1004.95
2018-10-07T04:47:17.117Z,1005.00
2018-10-07T04:48:17.162Z,1005.02
2018-10-07T04:49:17.174Z,1004.99
2018-10-07T04:50:17.184Z,1004.98
2018-10-07T04:51:17.151Z,1004.96
2018-10-07T04:52:17.163Z,1004.95
2018-10-07T04:53:17.235Z,1004.92
2018-10-07T04:54:17.377Z,1004.98
2018-10-07T04:55:17.262Z,1005.00
2018-10-07T04:56:17.210Z,1005.00
2018-10-07T04:57:17.238Z,1005.04
2018-10-07T04:58:17.233Z,1005.09
2018-10-07T04:59:17.258Z,1005.21
2018-10-07T05:00:17.277Z,1005.20
2018-10-07T05:01:17.260Z,1005.21
2018-10-07T05:02:17.263Z,1005.23
2018-10-07T05:03:17.248Z,1005.24
2018-10-07T05:04:17.289Z,1005.21
2018-10-07T05:05:17.272Z,1005.17
2018-10-07T05:06:17.285Z,1005.24
2018-10-07T05:07:17.297Z,1005.23
2018-10-07T05:08:17.294Z,1005.24
2018-10-07T05:09:17.419Z,1005.22
2018-10-07T05:10:17.330Z,1005.23
2018-10-07T05:11:17.328Z,1005.25
2018-10-07T05:12:17.490Z,1005.23
2018-10-07T05:13:17.340Z,1005.32
2018-10-07T05:14:17.379Z,1005.32
2018-10-07T05:15:17.428Z,1005.30
2018-10-07T05:16:17.361Z,1005.33
2018-10-07T05:17:17.380Z,1005.37
2018-10-07T05:18:17.430Z,1005.32
2018-10-07T05:19:17.384Z,1005.40
2018-10-07T05:20:17.485Z,1005.41
2018-10-07T05:21:17.413Z,1005.45
2018-10-07T05:22:17.456Z,1005.50
2018-10-07T05:23:17.434Z,1005.51
2018-10-07T05:24:17.445Z,1005.51
2018-10-07T05:25:17.454Z,1005.54
2018-10-07T05:26:17.508Z,1005.57
2018-10-07T05:27:17.468Z,1005.66
2018-10-07T05:28:17.466Z,1005.69
2018-10-07T05:29:17.507Z,1005.76
2018-10-07T05:30:17.490Z,1005.78
2018-10-07T05:31:17.544Z,1005.74
2018-10-07T05:32:17.544Z,1005.82
2018-10-07T05:33:17.592Z,1005.81
2018-10-07T05:34:17.528Z,1005.82
2018-10-07T05:35:17.566Z,1005.76
2018-10-07T05:36:17.593Z,1005.74
2018-10-07T05:37:17.595Z,1005.77
2018-10-07T05:38:17.562Z,1005.79
2018-10-07T05:39:17.575Z,1005.77
2018-10-07T05:40:17.677Z,1005.76
2018-10-07T05:41:17.612Z,1005.79
2018-10-07T05:42:17.627Z,1005.81
2018-10-07T05:43:17.697Z,1005.85
2018-10-07T05:44:17.694Z,1005.93
2018-10-07T05:45:17.643Z,1005.92
2018-10-07T05:46:17.748Z,1005.97
2018-10-07T05:47:17.657Z,1005.96
2018-10-07T05:48:17.660Z,1005.99
2018-10-07T05:49:17.708Z,1006.02
2018-10-07T05:50:17.678Z,1006.06
2018-10-07T05:51:17.706Z,1006.05
2018-10-07T05:52:17.696Z,1006.06
2018-10-07T05:53:17.745Z,1006.10
2018-10-07T05:54:17.763Z,1006.16
2018-10-07T05:55:17.714Z,1006.19
2018-10-07T05:56:17.719Z,1006.20
2018-10-07T05:57:17.760Z,1006.25
2018-10-07T05:58:17.740Z,1006.19
2018-10-07T05:59:17.804Z,1006.21
2018-10-07T06:00:17.766Z,1006.28
2018-10-07T06:01:17.774Z,1006.27
2018-10-07T06:02:17.833Z,1006.29
2018-10-07T06:03:17.820Z,1006.35
2018-10-07T06:04:17.839Z,1006.39
2018-10-07T06:05:17.811Z,1006.38
2018-10-07T06:06:17.830Z,1006.42
2018-10-07T06:07:17.825Z,1006.46
2018-10-07T06:08:17.828Z,1006.43
2018-10-07T06:09:17.908Z,1006.50
2018-10-07T06:10:17.858Z,1006.49
2018-10-07T06:11:17.856Z,1006.47
2018-10-07T06:12:17.861Z,1006.47
2018-10-07T06:13:17.885Z,1006.44
2018-10-07T06:14:17.921Z,1006.53
2018-10-07T06:15:17.940Z,1006.57
2018-10-07T06:16:17.942Z,1006.63
2018-10-07T06:17:17.916Z,1006.64
2018-10-07T06:18:17.913Z,1006.59
2018-10-07T06:19:17.943Z,1006.56
2018-10-07T06:20:17.981Z,1006.62
2018-10-07T06:21:18.009Z,1006.66
2018-10-07T06:22:17.957Z,1006.68
2018-10-07T06:23:17.978Z,1006.76
2018-10-07T06:24:17.990Z,1006.83
2018-10-07T06:25:18.180Z,1006.84
2018-10-07T06:26:18.000Z,1006.89
2018-10-07T06:27:18.018Z,1006.92
2018-10-07T06:28:18.019Z,1006.94
2018-10-07T06:29:18.028Z,1006.94
2018-10-07T06:30:18.193Z,1007.03
2018-10-07T06:31:18.061Z,1007.10
2018-10-07T06:32:18.140Z,1007.22
2018-10-07T06:33:18.056Z,1007.26
2018-10-07T06:34:18.067Z,1007.29
2018-10-07T06:35:18.092Z,1007.23
2018-10-07T06:36:18.112Z,1007.28
2018-10-07T06:37:18.097Z,1007.24
2018-10-07T06:38:18.146Z,1007.38
2018-10-07T06:39:18.109Z,1007.36
2018-10-07T06:40:18.112Z,1007.36
2018-10-07T06:41:18.210Z,1007.38
2018-10-07T06:42:18.146Z,1007.39
2018-10-07T06:43:18.158Z,1007.37
2018-10-07T06:44:18.150Z,1007.34
2018-10-07T06:45:18.214Z,1007.35
2018-10-07T06:46:18.205Z,1007.47
2018-10-07T06:47:18.209Z,1007.54
2018-10-07T06:48:18.222Z,1007.44
2018-10-07T06:49:18.211Z,1007.50
2018-10-07T06:50:18.211Z,1007.59
2018-10-07T06:51:18.224Z,1007.51
2018-10-07T06:52:18.303Z,1007.56
2018-10-07T06:53:18.260Z,1007.56
2018-10-07T06:54:18.242Z,1007.57
2018-10-07T06:55:18.251Z,1007.62
2018-10-07T06:56:18.304Z,1007.59
2018-10-07T06:57:18.336Z,1007.68
2018-10-07T06:58:18.492Z,1007.67
2018-10-07T06:59:18.323Z,1007.66
2018-10-07T07:00:18.383Z,1007.77
2018-10-07T07:01:18.318Z,1007.80
2018-10-07T07:02:18.396Z,1007.85
2018-10-07T07:03:18.387Z,1007.90
2018-10-07T07:04:18.344Z,1007.90
2018-10-07T07:05:18.349Z,1007.91
2018-10-07T07:06:18.392Z,1007.84
2018-10-07T07:07:18.395Z,1007.82
2018-10-07T07:08:18.380Z,1007.91
2018-10-07T07:09:18.411Z,1007.98
2018-10-07T07:10:18.429Z,1007.98
2018-10-07T07:11:18.418Z,1008.05
2018-10-07T07:12:18.416Z,1007.95
2018-10-07T07:13:18.436Z,1008.02
2018-10-07T07:14:18.555Z,1008.02
2018-10-07T07:15:18.444Z,1008.04
2018-10-07T07:16:18.472Z,1008.18
2018-10-07T07:17:18.460Z,1008.27
2018-10-07T07:18:18.473Z,1008.21
2018-10-07T07:19:18.476Z,1008.23
2018-10-07T07:20:18.587Z,1008.17
2018-10-07T07:21:18.633Z,1008.30
2018-10-07T07:22:18.545Z,1008.39
2018-10-07T07:23:18.513Z,1008.34
2018-10-07T07:24:18.532Z,1008.36
2018-10-07T07:25:18.528Z,1008.33
2018-10-07T07:26:18.571Z,1008.48
2018-10-07T07:27:18.631Z,1008.44
2018-10-07T07:28:18.586Z,1008.57
2018-10-07T07:29:19.121Z,1008.51
2018-10-07T07:30:18.595Z,1008.68
2018-10-07T07:31:18.807Z,1008.73
2018-10-07T07:32:18.673Z,1008.68
2018-10-07T07:33:18.657Z,1008.72
2018-10-07T07:34:18.623Z,1008.67
2018-10-07T07:35:18.693Z,1008.70
2018-10-07T07:36:18.722Z,1008.73
2018-10-07T07:37:18.651Z,1008.76
2018-10-07T07:38:18.659Z,1008.88
2018-10-07T07:39:18.665Z,1008.87
2018-10-07T07:40:18.714Z,1008.86
2018-10-07T07:41:18.679Z,1008.84
2018-10-07T07:42:18.742Z,1008.83
2018-10-07T07:43:18.742Z,1008.85
2018-10-07T07:44:18.736Z,1008.95
2018-10-07T07:45:18.789Z,1009.00
2018-10-07T07:46:18.760Z,1009.00
2018-10-07T07:47:18.750Z,1008.98
2018-10-07T07:48:18.752Z,1009.04
2018-10-07T07:49:18.773Z,1009.15
2018-10-07T07:50:18.799Z,1009.17
2018-10-07T07:51:18.849Z,1009.23
2018-10-07T07:52:18.790Z,1009.28
2018-10-07T07:53:18.808Z,1009.26
2018-10-07T07:54:18.812Z,1009.33
2018-10-07T07:55:18.803Z,1009.40
2018-10-07T07:56:18.822Z,1009.37
2018-10-07T07:57:18.916Z,1009.38
2018-10-07T07:58:18.874Z,1009.45
2018-10-07T07:59:18.854Z,1009.45
2018-10-07T08:00:18.935Z,1009.63
2018-10-07T08:01:18.858Z,1009.65
2018-10-07T08:02:18.923Z,1009.71
2018-10-07T08:03:18.907Z,1009.66
2018-10-07T08:04:18.880Z,1009.67
2018-10-07T08:05:18.896Z,1009.65
2018-10-07T08:06:18.903Z,1009.62
2018-10-07T08:07:18.977Z,1009.76
2018-10-07T08:08:18.944Z,1009.74
2018-10-07T08:09:19.003Z,1009.69
2018-10-07T08:10:18.948Z,1009.69
2018-10-07T08:11:18.960Z,1009.69
2018-10-07T08:12:18.961Z,1009.73
2018-10-07T08:13:19.010Z,1009.85
2018-10-07T08:14:18.976Z,1009.75
2018-10-07T08:15:18.986Z,1009.84
2018-10-07T08:16:19.098Z,1009.91
2018-10-07T08:17:19.003Z,1009.95
2018-10-07T08:18:19.070Z,1009.85
2018-10-07T08:19:19.017Z,1009.93
2018-10-07T08:20:19.037Z,1010.16
2018-10-07T08:21:19.088Z,1010.05
2018-10-07T08:22:19.042Z,1010.03
2018-10-07T08:23:19.104Z,1009.99
2018-10-07T08:24:19.061Z,1010.00
2018-10-07T08:25:19.071Z,1010.01
2018-10-07T08:26:19.070Z,1010.01
2018-10-07T08:27:19.156Z,1010.11
2018-10-07T08:28:19.120Z,1010.19
2018-10-07T08:29:19.126Z,1010.20
2018-10-07T08:30:19.134Z,1010.25
2018-10-07T08:31:19.161Z,1010.07
2018-10-07T08:32:19.154Z,1010.28
2018-10-07T08:33:19.129Z,1010.29
2018-10-07T08:34:19.172Z,1010.59
2018-10-07T08:35:19.242Z,1010.34
2018-10-07T08:36:19.195Z,1010.44
2018-10-07T08:37:19.234Z,1010.44
2018-10-07T08:38:19.204Z,1010.74
2018-10-07T08:39:19.197Z,1010.44
2018-10-07T08:40:19.213Z,1010.38
2018-10-07T08:41:19.221Z,1010.42
2018-10-07T08:42:19.273Z,1010.48
2018-10-07T08:43:19.235Z,1010.48
2018-10-07T08:44:19.237Z,1010.50
2018-10-07T08:45:19.273Z,1010.46
2018-10-07T08:46:19.259Z,1010.55
2018-10-07T08:47:19.381Z,1010.84
2018-10-07T08:48:19.272Z,1010.58
2018-10-07T08:49:19.394Z,1010.71
2018-10-07T08:50:19.279Z,1010.61
2018-10-07T08:51:19.299Z,1010.82
2018-10-07T08:52:19.342Z,1010.62
2018-10-07T08:53:19.313Z,1010.74
2018-10-07T08:54:19.339Z,1010.73
2018-10-07T08:55:19.368Z,1010.73
2018-10-07T08:56:19.396Z,1010.75
2018-10-07T08:57:19.338Z,1010.97
2018-10-07T08:58:19.362Z,1010.76
2018-10-07T08:59:19.439Z,1010.80
2018-10-07T09:00:19.414Z,1010.77
2018-10-07T09:01:19.417Z,1010.95
2018-10-07T09:02:19.442Z,1010.89
2018-10-07T09:03:19.590Z,1010.98
2018-10-07T09:04:19.617Z,1010.93
2018-10-07T09:05:21.020Z,1010.95
2018-10-07T09:06:19.650Z,1011.11
2018-10-07T09:07:19.444Z,1011.08
2018-10-07T09:08:19.452Z,1011.03
2018-10-07T09:09:19.489Z,1011.17
2018-10-07T09:10:19.466Z,1011.07
2018-10-07T09:11:19.499Z,1011.20
2018-10-07T09:12:19.491Z,1011.28
2018-10-07T09:13:19.543Z,1011.15
2018-10-07T09:14:19.557Z,1011.42
2018-10-07T09:15:19.540Z,1011.23
2018-10-07T09:16:19.548Z,1011.34
2018-10-07T09:17:19.539Z,1011.31
2018-10-07T09:18:19.620Z,1011.40
2018-10-07T09:19:19.559Z,1011.38
2018-10-07T09:20:19.614Z,1011.44
2018-10-07T09:21:19.560Z,1011.41
2018-10-07T09:22:19.565Z,1011.41
2018-10-07T09:23:19.601Z,1011.59
2018-10-07T09:24:19.647Z,1011.56
2018-10-07T09:25:19.605Z,1011.72
2018-10-07T09:26:19.607Z,1011.56
2018-10-07T09:27:19.735Z,1011.60
2018-10-07T09:28:19.634Z,1011.61
2018-10-07T09:29:19.730Z,1011.78
2018-10-07T09:30:20.613Z,1011.59
2018-10-07T09:31:19.651Z,1011.74
2018-10-07T09:32:19.711Z,1011.67
2018-10-07T09:33:19.661Z,1011.81
2018-10-07T09:34:19.698Z,1011.74
2018-10-07T09:35:19.674Z,1011.80
2018-10-07T09:36:19.732Z,1011.86
2018-10-07T09:37:19.723Z,1011.82
2018-10-07T09:38:19.733Z,1011.77
2018-10-07T09:39:19.771Z,1011.84
2018-10-07T09:40:19.746Z,1011.86
2018-10-07T09:41:19.749Z,1011.87
2018-10-07T09:42:19.773Z,1011.96
2018-10-07T09:43:19.777Z,1011.90
2018-10-07T09:44:19.783Z,1011.95
2018-10-07T09:45:19.769Z,1011.89
2018-10-07T09:46:19.807Z,1011.98
2018-10-07T09:47:19.945Z,1012.07
2018-10-07T09:48:19.804Z,1011.97
2018-10-07T09:49:19.804Z,1011.91
2018-10-07T09:50:19.813Z,1012.01
2018-10-07T09:51:19.833Z,1012.03
2018-10-07T09:52:19.910Z,1012.16
2018-10-07T09:53:19.853Z,1012.14
2018-10-07T09:54:19.872Z,1012.11
2018-10-07T09:55:19.940Z,1012.16
2018-10-07T09:56:19.854Z,1012.14
2018-10-07T09:57:19.869Z,1012.19
2018-10-07T09:58:19.916Z,1012.39
2018-10-07T09:59:19.883Z,1012.13
2018-10-07T10:00:19.925Z,1012.15
2018-10-07T10:01:20.070Z,1012.25
2018-10-07T10:02:19.970Z,1012.23
2018-10-07T10:03:19.976Z,1012.20
2018-10-07T10:04:19.989Z,1012.35
2018-10-07T10:05:19.982Z,1012.28
2018-10-07T10:06:19.968Z,1012.35
2018-10-07T10:07:19.969Z,1012.38
2018-10-07T10:08:19.983Z,1012.63
2018-10-07T10:09:19.997Z,1012.45
2018-10-07T10:10:19.978Z,1012.48
2018-10-07T10:11:20.095Z,1012.81
2018-10-07T10:12:20.023Z,1012.45
2018-10-07T10:13:20.020Z,1012.66
2018-10-07T10:14:20.049Z,1012.60
2018-10-07T10:15:20.025Z,1012.54
2018-10-07T10:16:20.137Z,1012.47
2018-10-07T10:17:20.041Z,1012.59
2018-10-07T10:18:20.060Z,1012.51
2018-10-07T10:19:20.079Z,1012.61
2018-10-07T10:20:20.087Z,1012.59
2018-10-07T10:21:20.125Z,1012.88
2018-10-07T10:22:20.086Z,1012.77
2018-10-07T10:23:20.247Z,1012.75
2018-10-07T10:24:20.092Z,1012.65
2018-10-07T10:25:20.093Z,1012.70
2018-10-07T10:26:20.166Z,1012.71
2018-10-07T10:27:20.133Z,1012.72
2018-10-07T10:28:20.140Z,1012.72
2018-10-07T10:29:20.143Z,1012.81
2018-10-07T10:30:20.190Z,1012.85
2018-10-07T10:31:20.177Z,1012.74
2018-10-07T10:32:20.158Z,1012.80
2018-10-07T10:33:20.165Z,1012.78
2018-10-07T10:34:20.220Z,1012.85
2018-10-07T10:35:20.230Z,1012.97
2018-10-07T10:36:20.210Z,1012.93
2018-10-07T10:37:20.246Z,1012.99
2018-10-07T10:38:20.203Z,1013.14
2018-10-07T10:39:20.215Z,1013.16
2018-10-07T10:40:20.229Z,1013.23
2018-10-07T10:41:20.283Z,1013.25
2018-10-07T10:42:20.381Z,1013.30
2018-10-07T10:43:20.265Z,1013.30
2018-10-07T10:44:20.292Z,1013.34
2018-10-07T10:45:20.271Z,1013.29
2018-10-07T10:46:20.343Z,1013.35
2018-10-07T10:47:20.290Z,1013.25
2018-10-07T10:48:20.330Z,1013.34
2018-10-07T10:49:20.307Z,1013.29
2018-10-07T10:50:20.310Z,1013.26
2018-10-07T10:51:20.335Z,1013.25
2018-10-07T10:52:20.384Z,1013.24
2018-10-07T10:53:20.448Z,1013.35
2018-10-07T10:54:20.388Z,1013.34
2018-10-07T10:55:20.435Z,1013.26
2018-10-07T10:56:20.487Z,1013.23
2018-10-07T10:57:20.403Z,1013.25
2018-10-07T10:58:20.411Z,1013.31
2018-10-07T10:59:20.431Z,1013.46
2018-10-07T11:00:20.430Z,1013.31
2018-10-07T11:01:20.437Z,1013.33
2018-10-07T11:02:20.408Z,1013.36
2018-10-07T11:03:20.423Z,1013.29
2018-10-07T11:04:20.465Z,1013.35
2018-10-07T11:05:22.522Z,1013.33
2018-10-07T11:06:20.434Z,1013.35
2018-10-07T11:07:20.475Z,1013.33
2018-10-07T11:08:20.633Z,1013.30
2018-10-07T11:09:20.458Z,1013.31
2018-10-07T11:10:20.539Z,1013.32
2018-10-07T11:11:20.523Z,1013.37
2018-10-07T11:12:20.509Z,1013.42
2018-10-07T11:13:20.495Z,1013.62
2018-10-07T11:14:20.572Z,1013.51
2018-10-07T11:15:20.555Z,1013.45
2018-10-07T11:16:23.027Z,1013.43
2018-10-07T11:17:20.969Z,1013.49
2018-10-07T11:18:20.967Z,1013.39
2018-10-07T11:19:21.070Z,1013.41
2018-10-07T11:20:20.627Z,1013.51
2018-10-07T11:21:20.888Z,1013.57
2018-10-07T11:22:20.598Z,1013.42
2018-10-07T11:23:20.638Z,1013.46
2018-10-07T11:24:20.639Z,1013.44
2018-10-07T11:25:20.643Z,1013.42
2018-10-07T11:26:22.264Z,1013.44
2018-10-07T11:27:20.690Z,1013.39
2018-10-07T11:28:20.657Z,1013.46
2018-10-07T11:29:20.727Z,1013.47
2018-10-07T11:30:20.660Z,1013.49
2018-10-07T11:31:20.658Z,1013.48
2018-10-07T11:32:20.783Z,1013.48
2018-10-07T11:33:20.646Z,1013.58
2018-10-07T11:34:20.709Z,1013.65
2018-10-07T11:35:20.715Z,1013.68
2018-10-07T11:36:21.368Z,1013.65
2018-10-07T11:37:20.804Z,1013.62
2018-10-07T11:38:20.963Z,1013.69
2018-10-07T11:39:20.934Z,1013.66
2018-10-07T11:40:21.101Z,1013.67
2018-10-07T11:41:20.856Z,1013.67
2018-10-07T11:42:21.117Z,1013.79
2018-10-07T11:43:21.358Z,1013.75
2018-10-07T11:44:21.066Z,1013.68
2018-10-07T11:45:20.970Z,1013.66
2018-10-07T11:46:20.915Z,1013.92
2018-10-07T11:47:20.940Z,1013.67
2018-10-07T11:48:21.072Z,1013.74
2018-10-07T11:49:20.994Z,1013.71
2018-10-07T11:50:21.038Z,1013.76
2018-10-07T11:51:21.196Z,1013.76
2018-10-07T11:52:21.056Z,1013.80
2018-10-07T11:53:21.767Z,1013.73
2018-10-07T11:54:21.520Z,1013.87
2018-10-07T11:55:21.046Z,1013.74
2018-10-07T11:56:21.017Z,1013.82
2018-10-07T11:57:21.151Z,1013.80
2018-10-07T11:58:21.027Z,1013.89
2018-10-07T11:59:21.043Z,1013.74
2018-10-07T12:00:21.097Z,1013.72
2018-10-07T12:01:22.084Z,1013.82
2018-10-07T12:02:21.004Z,1013.84
2018-10-07T12:03:21.234Z,1013.93
2018-10-07T12:04:20.987Z,1013.79
2018-10-07T12:05:20.972Z,1013.78